sensor_id;sensor_type;location;lat;lon;timestamp;temperature;humidity
15095;DHT22;7648;52.264;9.632;2022-10-28T00:01:02;16.00;99.90
15095;DHT22;7648;52.264;9.632;2022-10-28T00:05:04;16.10;99.90
15095;DHT22;7648;52.264;9.632;2022-10-28T00:09:08;16.20;99.90
15095;DHT22;7648;52.264;9.632;2022-10-28T00:13:10;16.30;99.90
15095;DHT22;7648;52.264;9.632;2022-10-28T00:17:12;16.40;99.90
15095;DHT22;7648;52.264;9.632;2022-10-28T00:21:15;16.40;99.90
15095;DHT22;7648;52.264;9.632;2022-10-28T00:25:19;16.40;99.90
15095;DHT22;7648;52.264;9.632;2022-10-28T00:29:24;16.50;99.90
15095;DHT22;7648;52.264;9.632;2022-10-28T00:33:26;16.60;99.90
15095;DHT22;7648;52.264;9.632;2022-10-28T00:37:28;16.70;99.90
15095;DHT22;7648;52.264;9.632;2022-10-28T00:41:34;16.70;99.90
15095;DHT22;7648;52.264;9.632;2022-10-28T00:45:36;16.70;99.90
15095;DHT22;7648;52.264;9.632;2022-10-28T00:49:38;16.60;99.90
15095;DHT22;7648;52.264;9.632;2022-10-28T00:53:42;16.60;99.90
15095;DHT22;7648;52.264;9.632;2022-10-28T00:57:49;16.60;99.90
15095;DHT22;7648;52.264;9.632;2022-10-28T01:01:56;16.60;99.90
15095;DHT22;7648;52.264;9.632;2022-10-28T01:05:58;16.60;99.90
15095;DHT22;7648;52.264;9.632;2022-10-28T01:10:02;16.60;99.90
15095;DHT22;7648;52.264;9.632;2022-10-28T01:14:15;16.50;99.90
15095;DHT22;7648;52.264;9.632;2022-10-28T01:18:23;16.40;99.90
15095;DHT22;7648;52.264;9.632;2022-10-28T01:22:29;16.30;99.90
15095;DHT22;7648;52.264;9.632;2022-10-28T01:31:26;16.40;99.90
15095;DHT22;7648;52.264;9.632;2022-10-28T01:35:36;16.40;99.90
15095;DHT22;7648;52.264;9.632;2022-10-28T01:39:47;16.40;99.90
15095;DHT22;7648;52.264;9.632;2022-10-28T01:43:55;16.40;99.90
15095;DHT22;7648;52.264;9.632;2022-10-28T01:48:03;16.40;99.90
15095;DHT22;7648;52.264;9.632;2022-10-28T01:52:10;16.40;99.90
15095;DHT22;7648;52.264;9.632;2022-10-28T01:56:15;16.40;99.90
15095;DHT22;7648;52.264;9.632;2022-10-28T02:00:18;16.40;99.90
15095;DHT22;7648;52.264;9.632;2022-10-28T02:04:21;16.50;99.90
15095;DHT22;7648;52.264;9.632;2022-10-28T02:08:34;16.50;99.90
15095;DHT22;7648;52.264;9.632;2022-10-28T02:12:37;16.50;99.90
15095;DHT22;7648;52.264;9.632;2022-10-28T02:16:46;16.50;99.90
15095;DHT22;7648;52.264;9.632;2022-10-28T02:20:53;16.50;99.90
15095;DHT22;7648;52.264;9.632;2022-10-28T02:25:02;16.50;99.90
15095;DHT22;7648;52.264;9.632;2022-10-28T02:29:13;16.50;99.90
15095;DHT22;7648;52.264;9.632;2022-10-28T02:33:19;16.50;99.90
15095;DHT22;7648;52.264;9.632;2022-10-28T02:37:27;16.50;99.90
15095;DHT22;7648;52.264;9.632;2022-10-28T02:41:35;16.60;99.90
15095;DHT22;7648;52.264;9.632;2022-10-28T02:45:41;16.60;99.90
15095;DHT22;7648;52.264;9.632;2022-10-28T02:49:46;16.60;99.90
15095;DHT22;7648;52.264;9.632;2022-10-28T02:53:57;16.60;99.90
15095;DHT22;7648;52.264;9.632;2022-10-28T02:58:00;16.50;99.90
15095;DHT22;7648;52.264;9.632;2022-10-28T03:02:02;16.50;99.90
15095;DHT22;7648;52.264;9.632;2022-10-28T03:06:05;16.40;99.90
15095;DHT22;7648;52.264;9.632;2022-10-28T03:10:08;16.40;99.90
15095;DHT22;7648;52.264;9.632;2022-10-28T03:14:10;16.30;99.90
15095;DHT22;7648;52.264;9.632;2022-10-28T03:18:12;16.30;99.90
15095;DHT22;7648;52.264;9.632;2022-10-28T03:22:14;16.20;99.90
15095;DHT22;7648;52.264;9.632;2022-10-28T03:26:18;16.20;99.90
15095;DHT22;7648;52.264;9.632;2022-10-28T03:30:19;16.10;99.90
15095;DHT22;7648;52.264;9.632;2022-10-28T03:34:21;16.10;99.90
15095;DHT22;7648;52.264;9.632;2022-10-28T03:38:23;16.10;99.90
15095;DHT22;7648;52.264;9.632;2022-10-28T03:42:27;16.10;99.90
15095;DHT22;7648;52.264;9.632;2022-10-28T03:46:29;16.10;99.90
15095;DHT22;7648;52.264;9.632;2022-10-28T03:50:31;16.00;99.90
15095;DHT22;7648;52.264;9.632;2022-10-28T03:54:32;16.00;99.90
15095;DHT22;7648;52.264;9.632;2022-10-28T03:58:36;15.90;99.90
15095;DHT22;7648;52.264;9.632;2022-10-28T04:02:38;15.90;99.90
15095;DHT22;7648;52.264;9.632;2022-10-28T04:06:40;15.80;99.90
15095;DHT22;7648;52.264;9.632;2022-10-28T04:10:42;15.80;99.90
15095;DHT22;7648;52.264;9.632;2022-10-28T04:14:45;15.90;99.90
15095;DHT22;7648;52.264;9.632;2022-10-28T04:18:48;16.00;99.90
15095;DHT22;7648;52.264;9.632;2022-10-28T04:22:50;16.00;99.90
15095;DHT22;7648;52.264;9.632;2022-10-28T04:26:52;16.10;99.90
15095;DHT22;7648;52.264;9.632;2022-10-28T04:30:55;16.10;99.90
15095;DHT22;7648;52.264;9.632;2022-10-28T04:34:57;16.10;99.90
15095;DHT22;7648;52.264;9.632;2022-10-28T04:38:59;16.20;99.90
15095;DHT22;7648;52.264;9.632;2022-10-28T04:43:01;16.30;99.90
15095;DHT22;7648;52.264;9.632;2022-10-28T04:47:04;16.40;99.90
15095;DHT22;7648;52.264;9.632;2022-10-28T04:51:06;16.50;99.90
15095;DHT22;7648;52.264;9.632;2022-10-28T04:55:08;16.60;99.90
15095;DHT22;7648;52.264;9.632;2022-10-28T04:59:10;16.60;99.90
15095;DHT22;7648;52.264;9.632;2022-10-28T05:03:14;16.60;99.90
15095;DHT22;7648;52.264;9.632;2022-10-28T05:07:16;16.60;99.90
15095;DHT22;7648;52.264;9.632;2022-10-28T05:11:17;16.60;99.90
15095;DHT22;7648;52.264;9.632;2022-10-28T05:15:19;16.60;99.90
15095;DHT22;7648;52.264;9.632;2022-10-28T05:19:23;16.50;99.90
15095;DHT22;7648;52.264;9.632;2022-10-28T05:23:25;16.50;99.90
15095;DHT22;7648;52.264;9.632;2022-10-28T05:27:27;16.50;99.90
15095;DHT22;7648;52.264;9.632;2022-10-28T05:31:29;16.60;99.90
15095;DHT22;7648;52.264;9.632;2022-10-28T05:35:32;16.70;99.90
15095;DHT22;7648;52.264;9.632;2022-10-28T05:39:34;16.70;99.90
15095;DHT22;7648;52.264;9.632;2022-10-28T05:43:36;16.80;99.90
15095;DHT22;7648;52.264;9.632;2022-10-28T05:47:41;16.90;99.90
15095;DHT22;7648;52.264;9.632;2022-10-28T05:51:44;16.90;99.90
15095;DHT22;7648;52.264;9.632;2022-10-28T05:55:46;17.10;99.90
15095;DHT22;7648;52.264;9.632;2022-10-28T05:59:48;17.20;99.90
15095;DHT22;7648;52.264;9.632;2022-10-28T06:03:50;17.20;99.90
15095;DHT22;7648;52.264;9.632;2022-10-28T06:07:55;17.30;99.90
15095;DHT22;7648;52.264;9.632;2022-10-28T06:11:57;17.30;99.90
15095;DHT22;7648;52.264;9.632;2022-10-28T06:15:59;17.30;99.90
15095;DHT22;7648;52.264;9.632;2022-10-28T06:20:01;17.30;99.90
15095;DHT22;7648;52.264;9.632;2022-10-28T06:24:05;17.20;99.90
15095;DHT22;7648;52.264;9.632;2022-10-28T06:28:08;17.20;99.90
15095;DHT22;7648;52.264;9.632;2022-10-28T06:32:10;17.30;99.90
15095;DHT22;7648;52.264;9.632;2022-10-28T06:36:12;17.30;99.90
15095;DHT22;7648;52.264;9.632;2022-10-28T06:40:15;17.30;99.90
15095;DHT22;7648;52.264;9.632;2022-10-28T06:44:17;17.30;99.90
15095;DHT22;7648;52.264;9.632;2022-10-28T06:48:19;17.30;99.90
15095;DHT22;7648;52.264;9.632;2022-10-28T06:52:21;17.30;99.90
15095;DHT22;7648;52.264;9.632;2022-10-28T06:56:24;17.30;99.90
15095;DHT22;7648;52.264;9.632;2022-10-28T07:00:26;17.30;99.90
15095;DHT22;7648;52.264;9.632;2022-10-28T07:04:29;17.20;99.90
15095;DHT22;7648;52.264;9.632;2022-10-28T07:08:31;17.10;99.90
15095;DHT22;7648;52.264;9.632;2022-10-28T07:12:34;17.00;99.90
15095;DHT22;7648;52.264;9.632;2022-10-28T07:16:36;16.90;99.90
15095;DHT22;7648;52.264;9.632;2022-10-28T07:20:38;17.00;99.90
15095;DHT22;7648;52.264;9.632;2022-10-28T07:24:40;17.10;99.90
15095;DHT22;7648;52.264;9.632;2022-10-28T07:28:43;17.30;99.90
15095;DHT22;7648;52.264;9.632;2022-10-28T07:32:45;17.60;99.90
15095;DHT22;7648;52.264;9.632;2022-10-28T07:36:48;17.90;99.90
15095;DHT22;7648;52.264;9.632;2022-10-28T07:40:50;18.00;99.90
15095;DHT22;7648;52.264;9.632;2022-10-28T07:44:54;18.10;99.90
15095;DHT22;7648;52.264;9.632;2022-10-28T07:48:56;18.20;99.90
15095;DHT22;7648;52.264;9.632;2022-10-28T07:52:58;18.30;99.90
15095;DHT22;7648;52.264;9.632;2022-10-28T07:57:00;18.30;99.90
15095;DHT22;7648;52.264;9.632;2022-10-28T08:01:06;18.40;99.90
15095;DHT22;7648;52.264;9.632;2022-10-28T08:05:08;18.40;99.90
15095;DHT22;7648;52.264;9.632;2022-10-28T08:09:10;18.40;99.90
15095;DHT22;7648;52.264;9.632;2022-10-28T08:13:12;18.40;99.90
15095;DHT22;7648;52.264;9.632;2022-10-28T08:17:15;18.40;99.90
15095;DHT22;7648;52.264;9.632;2022-10-28T08:21:17;18.30;99.90
15095;DHT22;7648;52.264;9.632;2022-10-28T08:25:19;18.20;99.90
15095;DHT22;7648;52.264;9.632;2022-10-28T08:29:21;18.30;99.90
15095;DHT22;7648;52.264;9.632;2022-10-28T08:33:25;18.20;99.90
15095;DHT22;7648;52.264;9.632;2022-10-28T08:37:27;18.20;99.90
15095;DHT22;7648;52.264;9.632;2022-10-28T08:41:33;18.20;99.90
15095;DHT22;7648;52.264;9.632;2022-10-28T08:45:43;18.30;99.90
15095;DHT22;7648;52.264;9.632;2022-10-28T08:49:51;18.40;99.90
15095;DHT22;7648;52.264;9.632;2022-10-28T08:53:58;18.50;99.90
15095;DHT22;7648;52.264;9.632;2022-10-28T08:58:07;18.50;99.90
15095;DHT22;7648;52.264;9.632;2022-10-28T09:02:19;18.50;99.90
15095;DHT22;7648;52.264;9.632;2022-10-28T09:06:23;18.60;99.90
15095;DHT22;7648;52.264;9.632;2022-10-28T09:10:40;18.70;99.90
15095;DHT22;7648;52.264;9.632;2022-10-28T09:15:01;18.80;99.90
15095;DHT22;7648;52.264;9.632;2022-10-28T09:19:17;18.90;99.90
15095;DHT22;7648;52.264;9.632;2022-10-28T09:23:23;19.00;99.90
15095;DHT22;7648;52.264;9.632;2022-10-28T09:27:40;19.10;99.90
15095;DHT22;7648;52.264;9.632;2022-10-28T09:31:46;19.20;99.90
15095;DHT22;7648;52.264;9.632;2022-10-28T09:35:50;19.30;99.90
15095;DHT22;7648;52.264;9.632;2022-10-28T09:39:55;19.50;99.90
15095;DHT22;7648;52.264;9.632;2022-10-28T09:44:05;19.60;99.90
15095;DHT22;7648;52.264;9.632;2022-10-28T09:48:17;19.70;99.90
15095;DHT22;7648;52.264;9.632;2022-10-28T09:52:22;20.00;99.90
15095;DHT22;7648;52.264;9.632;2022-10-28T09:56:28;20.10;99.90
15095;DHT22;7648;52.264;9.632;2022-10-28T10:00:31;20.20;99.90
15095;DHT22;7648;52.264;9.632;2022-10-28T10:04:33;20.40;99.90
15095;DHT22;7648;52.264;9.632;2022-10-28T10:08:35;20.50;99.90
15095;DHT22;7648;52.264;9.632;2022-10-28T10:12:40;20.50;99.90
15095;DHT22;7648;52.264;9.632;2022-10-28T10:16:46;20.70;99.90
15095;DHT22;7648;52.264;9.632;2022-10-28T10:20:50;20.80;99.90
15095;DHT22;7648;52.264;9.632;2022-10-28T10:24:53;20.80;99.90
15095;DHT22;7648;52.264;9.632;2022-10-28T10:28:58;21.00;99.90
15095;DHT22;7648;52.264;9.632;2022-10-28T10:33:01;21.30;99.90
15095;DHT22;7648;52.264;9.632;2022-10-28T10:37:04;21.50;99.90
15095;DHT22;7648;52.264;9.632;2022-10-28T10:41:05;21.50;99.90
15095;DHT22;7648;52.264;9.632;2022-10-28T10:45:19;22.10;99.90
15095;DHT22;7648;52.264;9.632;2022-10-28T10:49:21;22.90;99.90
15095;DHT22;7648;52.264;9.632;2022-10-28T10:53:25;23.10;99.90
15095;DHT22;7648;52.264;9.632;2022-10-28T10:57:28;22.90;99.90
15095;DHT22;7648;52.264;9.632;2022-10-28T11:01:34;23.10;99.90
15095;DHT22;7648;52.264;9.632;2022-10-28T11:05:37;23.10;99.90
15095;DHT22;7648;52.264;9.632;2022-10-28T11:09:40;23.10;99.90
15095;DHT22;7648;52.264;9.632;2022-10-28T11:13:42;23.00;99.90
15095;DHT22;7648;52.264;9.632;2022-10-28T11:17:55;23.10;99.90
15095;DHT22;7648;52.264;9.632;2022-10-28T11:22:11;23.10;99.90
15095;DHT22;7648;52.264;9.632;2022-10-28T11:26:18;23.10;99.90
15095;DHT22;7648;52.264;9.632;2022-10-28T11:30:35;23.20;99.90
15095;DHT22;7648;52.264;9.632;2022-10-28T11:35:08;23.20;99.90
15095;DHT22;7648;52.264;9.632;2022-10-28T11:39:24;23.20;99.90
15095;DHT22;7648;52.264;9.632;2022-10-28T11:43:33;23.30;99.90
15095;DHT22;7648;52.264;9.632;2022-10-28T11:47:59;23.30;99.90
15095;DHT22;7648;52.264;9.632;2022-10-28T11:52:13;23.20;99.90
15095;DHT22;7648;52.264;9.632;2022-10-28T11:56:26;23.10;99.90
15095;DHT22;7648;52.264;9.632;2022-10-28T12:00:42;23.10;99.90
15095;DHT22;7648;52.264;9.632;2022-10-28T12:04:53;23.10;99.90
15095;DHT22;7648;52.264;9.632;2022-10-28T12:09:10;22.90;99.90
15095;DHT22;7648;52.264;9.632;2022-10-28T12:13:20;22.80;99.90
15095;DHT22;7648;52.264;9.632;2022-10-28T12:17:31;22.70;99.90
15095;DHT22;7648;52.264;9.632;2022-10-28T12:21:36;22.70;99.90
15095;DHT22;7648;52.264;9.632;2022-10-28T12:25:43;22.60;99.90
15095;DHT22;7648;52.264;9.632;2022-10-28T12:29:48;22.60;99.90
15095;DHT22;7648;52.264;9.632;2022-10-28T12:33:54;22.50;99.90
15095;DHT22;7648;52.264;9.632;2022-10-28T12:38:02;22.40;99.90
15095;DHT22;7648;52.264;9.632;2022-10-28T12:42:13;22.30;99.90
15095;DHT22;7648;52.264;9.632;2022-10-28T12:46:23;22.30;99.90
15095;DHT22;7648;52.264;9.632;2022-10-28T12:50:32;22.30;99.90
15095;DHT22;7648;52.264;9.632;2022-10-28T12:54:41;22.30;99.90
15095;DHT22;7648;52.264;9.632;2022-10-28T12:58:53;22.40;99.90
15095;DHT22;7648;52.264;9.632;2022-10-28T13:03:01;22.40;99.90
15095;DHT22;7648;52.264;9.632;2022-10-28T13:11:49;22.40;99.90
15095;DHT22;7648;52.264;9.632;2022-10-28T13:16:09;22.40;99.90
15095;DHT22;7648;52.264;9.632;2022-10-28T13:20:24;22.40;99.90
15095;DHT22;7648;52.264;9.632;2022-10-28T13:24:33;22.30;99.90
15095;DHT22;7648;52.264;9.632;2022-10-28T13:28:43;22.20;99.90
15095;DHT22;7648;52.264;9.632;2022-10-28T13:32:49;22.20;99.90
15095;DHT22;7648;52.264;9.632;2022-10-28T13:36:55;22.10;99.90
15095;DHT22;7648;52.264;9.632;2022-10-28T13:41:24;22.10;99.90
15095;DHT22;7648;52.264;9.632;2022-10-28T13:45:49;22.00;99.90
15095;DHT22;7648;52.264;9.632;2022-10-28T13:54:52;21.80;99.90
15095;DHT22;7648;52.264;9.632;2022-10-28T13:58:57;21.70;99.90
15095;DHT22;7648;52.264;9.632;2022-10-28T14:03:00;21.70;99.90
15095;DHT22;7648;52.264;9.632;2022-10-28T14:07:20;21.50;99.90
15095;DHT22;7648;52.264;9.632;2022-10-28T14:11:24;21.50;99.90
15095;DHT22;7648;52.264;9.632;2022-10-28T14:15:29;21.40;99.90
15095;DHT22;7648;52.264;9.632;2022-10-28T14:19:32;21.30;99.90
15095;DHT22;7648;52.264;9.632;2022-10-28T14:24:07;21.30;99.90
15095;DHT22;7648;52.264;9.632;2022-10-28T14:33:17;21.20;99.90
15095;DHT22;7648;52.264;9.632;2022-10-28T14:37:54;21.10;99.90
15095;DHT22;7648;52.264;9.632;2022-10-28T14:42:26;21.00;99.90
15095;DHT22;7648;52.264;9.632;2022-10-28T14:46:42;20.90;99.90
15095;DHT22;7648;52.264;9.632;2022-10-28T14:50:46;20.80;99.90
15095;DHT22;7648;52.264;9.632;2022-10-28T14:54:52;20.80;99.90
15095;DHT22;7648;52.264;9.632;2022-10-28T14:59:02;20.70;99.90
15095;DHT22;7648;52.264;9.632;2022-10-28T15:03:08;20.70;99.90
15095;DHT22;7648;52.264;9.632;2022-10-28T15:07:13;20.60;99.90
15095;DHT22;7648;52.264;9.632;2022-10-28T15:11:15;20.60;99.90
15095;DHT22;7648;52.264;9.632;2022-10-28T15:15:20;20.50;99.90
15095;DHT22;7648;52.264;9.632;2022-10-28T15:19:25;20.40;99.90
15095;DHT22;7648;52.264;9.632;2022-10-28T15:23:28;20.30;99.90
15095;DHT22;7648;52.264;9.632;2022-10-28T15:27:32;20.20;99.90
15095;DHT22;7648;52.264;9.632;2022-10-28T15:32:04;20.20;99.90
15095;DHT22;7648;52.264;9.632;2022-10-28T15:36:08;20.10;99.90
15095;DHT22;7648;52.264;9.632;2022-10-28T15:40:20;19.90;99.90
15095;DHT22;7648;52.264;9.632;2022-10-28T15:44:30;19.80;99.90
15095;DHT22;7648;52.264;9.632;2022-10-28T15:48:34;19.90;99.90
15095;DHT22;7648;52.264;9.632;2022-10-28T15:52:38;19.90;99.90
15095;DHT22;7648;52.264;9.632;2022-10-28T15:56:52;19.90;99.90
15095;DHT22;7648;52.264;9.632;2022-10-28T16:00:56;19.70;99.90
15095;DHT22;7648;52.264;9.632;2022-10-28T16:05:00;19.80;99.90
15095;DHT22;7648;52.264;9.632;2022-10-28T16:09:05;19.70;99.90
15095;DHT22;7648;52.264;9.632;2022-10-28T16:13:16;19.80;99.90
15095;DHT22;7648;52.264;9.632;2022-10-28T16:17:21;20.10;99.90
15095;DHT22;7648;52.264;9.632;2022-10-28T16:21:25;20.30;99.90
15095;DHT22;7648;52.264;9.632;2022-10-28T16:25:27;20.40;99.90
15095;DHT22;7648;52.264;9.632;2022-10-28T16:29:29;20.60;99.90
15095;DHT22;7648;52.264;9.632;2022-10-28T16:33:33;20.60;99.90
15095;DHT22;7648;52.264;9.632;2022-10-28T16:37:37;20.70;99.90
15095;DHT22;7648;52.264;9.632;2022-10-28T16:41:39;20.70;99.90
15095;DHT22;7648;52.264;9.632;2022-10-28T16:45:41;20.70;99.90
15095;DHT22;7648;52.264;9.632;2022-10-28T16:49:43;20.80;99.90
15095;DHT22;7648;52.264;9.632;2022-10-28T16:53:49;20.80;99.90
15095;DHT22;7648;52.264;9.632;2022-10-28T16:57:52;20.90;99.90
15095;DHT22;7648;52.264;9.632;2022-10-28T17:01:54;20.90;99.90
15095;DHT22;7648;52.264;9.632;2022-10-28T17:05:57;20.80;99.90
15095;DHT22;7648;52.264;9.632;2022-10-28T17:10:00;20.70;99.90
15095;DHT22;7648;52.264;9.632;2022-10-28T17:14:02;20.60;99.90
15095;DHT22;7648;52.264;9.632;2022-10-28T17:18:04;20.60;99.90
15095;DHT22;7648;52.264;9.632;2022-10-28T17:22:07;20.50;99.90
15095;DHT22;7648;52.264;9.632;2022-10-28T17:26:11;20.40;99.90
15095;DHT22;7648;52.264;9.632;2022-10-28T17:30:14;20.40;99.90
15095;DHT22;7648;52.264;9.632;2022-10-28T17:34:18;20.40;99.90
15095;DHT22;7648;52.264;9.632;2022-10-28T17:38:20;20.30;99.90
15095;DHT22;7648;52.264;9.632;2022-10-28T17:42:23;20.30;99.90
15095;DHT22;7648;52.264;9.632;2022-10-28T17:46:25;20.30;99.90
15095;DHT22;7648;52.264;9.632;2022-10-28T17:50:27;20.20;99.90
15095;DHT22;7648;52.264;9.632;2022-10-28T17:54:29;20.10;99.90
15095;DHT22;7648;52.264;9.632;2022-10-28T17:58:32;20.10;99.90
15095;DHT22;7648;52.264;9.632;2022-10-28T18:02:34;20.10;99.90
15095;DHT22;7648;52.264;9.632;2022-10-28T18:06:36;20.00;99.90
15095;DHT22;7648;52.264;9.632;2022-10-28T18:10:38;19.90;99.90
15095;DHT22;7648;52.264;9.632;2022-10-28T18:14:52;19.80;99.90
15095;DHT22;7648;52.264;9.632;2022-10-28T18:18:54;19.80;99.90
15095;DHT22;7648;52.264;9.632;2022-10-28T18:22:56;19.70;99.90
15095;DHT22;7648;52.264;9.632;2022-10-28T18:26:58;19.70;99.90
15095;DHT22;7648;52.264;9.632;2022-10-28T18:31:02;19.70;99.90
15095;DHT22;7648;52.264;9.632;2022-10-28T18:35:05;19.60;99.90
15095;DHT22;7648;52.264;9.632;2022-10-28T18:39:07;19.60;99.90
15095;DHT22;7648;52.264;9.632;2022-10-28T18:43:09;19.60;99.90
15095;DHT22;7648;52.264;9.632;2022-10-28T18:47:13;19.60;99.90
15095;DHT22;7648;52.264;9.632;2022-10-28T18:51:15;19.50;99.90
15095;DHT22;7648;52.264;9.632;2022-10-28T18:55:17;19.40;99.90
15095;DHT22;7648;52.264;9.632;2022-10-28T18:59:19;19.40;99.90
15095;DHT22;7648;52.264;9.632;2022-10-28T19:03:22;19.40;99.90
15095;DHT22;7648;52.264;9.632;2022-10-28T19:07:24;19.30;99.90
15095;DHT22;7648;52.264;9.632;2022-10-28T19:11:27;19.30;99.90
15095;DHT22;7648;52.264;9.632;2022-10-28T19:15:30;19.30;99.90
15095;DHT22;7648;52.264;9.632;2022-10-28T19:19:34;19.40;99.90
15095;DHT22;7648;52.264;9.632;2022-10-28T19:23:36;19.40;99.90
15095;DHT22;7648;52.264;9.632;2022-10-28T19:27:38;19.50;99.90
15095;DHT22;7648;52.264;9.632;2022-10-28T19:31:40;19.50;99.90
15095;DHT22;7648;52.264;9.632;2022-10-28T19:35:44;19.50;99.90
15095;DHT22;7648;52.264;9.632;2022-10-28T19:39:46;19.50;99.90
15095;DHT22;7648;52.264;9.632;2022-10-28T19:43:51;19.50;99.90
15095;DHT22;7648;52.264;9.632;2022-10-28T19:47:53;19.60;99.90
15095;DHT22;7648;52.264;9.632;2022-10-28T19:51:57;19.70;99.90
15095;DHT22;7648;52.264;9.632;2022-10-28T19:56:00;19.80;99.90
15095;DHT22;7648;52.264;9.632;2022-10-28T20:00:03;19.70;99.90
15095;DHT22;7648;52.264;9.632;2022-10-28T20:04:12;19.80;99.90
15095;DHT22;7648;52.264;9.632;2022-10-28T20:08:15;19.80;99.90
15095;DHT22;7648;52.264;9.632;2022-10-28T20:12:17;19.70;99.90
15095;DHT22;7648;52.264;9.632;2022-10-28T20:16:19;19.60;99.90
15095;DHT22;7648;52.264;9.632;2022-10-28T20:20:21;19.50;99.90
15095;DHT22;7648;52.264;9.632;2022-10-28T20:24:24;19.40;99.90
15095;DHT22;7648;52.264;9.632;2022-10-28T20:28:27;19.40;99.90
15095;DHT22;7648;52.264;9.632;2022-10-28T20:32:29;19.30;99.90
15095;DHT22;7648;52.264;9.632;2022-10-28T20:36:33;19.30;99.90
15095;DHT22;7648;52.264;9.632;2022-10-28T20:40:36;19.30;99.90
15095;DHT22;7648;52.264;9.632;2022-10-28T20:44:38;19.40;99.90
15095;DHT22;7648;52.264;9.632;2022-10-28T20:48:40;19.30;99.90
15095;DHT22;7648;52.264;9.632;2022-10-28T20:52:42;19.20;99.90
15095;DHT22;7648;52.264;9.632;2022-10-28T20:56:45;19.10;99.90
15095;DHT22;7648;52.264;9.632;2022-10-28T21:00:48;19.10;99.90
15095;DHT22;7648;52.264;9.632;2022-10-28T21:04:50;19.10;99.90
15095;DHT22;7648;52.264;9.632;2022-10-28T21:08:53;19.10;99.90
15095;DHT22;7648;52.264;9.632;2022-10-28T21:12:57;19.10;99.90
15095;DHT22;7648;52.264;9.632;2022-10-28T21:16:59;19.10;99.90
15095;DHT22;7648;52.264;9.632;2022-10-28T21:21:01;19.10;99.90
15095;DHT22;7648;52.264;9.632;2022-10-28T21:25:04;19.00;99.90
15095;DHT22;7648;52.264;9.632;2022-10-28T21:29:08;19.00;99.90
15095;DHT22;7648;52.264;9.632;2022-10-28T21:33:10;18.90;99.90
15095;DHT22;7648;52.264;9.632;2022-10-28T21:37:13;18.80;99.90
15095;DHT22;7648;52.264;9.632;2022-10-28T21:41:17;18.80;99.90
15095;DHT22;7648;52.264;9.632;2022-10-28T21:45:20;18.70;99.90
15095;DHT22;7648;52.264;9.632;2022-10-28T21:49:23;18.70;99.90
15095;DHT22;7648;52.264;9.632;2022-10-28T21:53:26;18.60;99.90
15095;DHT22;7648;52.264;9.632;2022-10-28T21:57:28;18.60;99.90
15095;DHT22;7648;52.264;9.632;2022-10-28T22:01:32;18.50;99.90
15095;DHT22;7648;52.264;9.632;2022-10-28T22:05:35;18.50;99.90
15095;DHT22;7648;52.264;9.632;2022-10-28T22:09:37;18.40;99.90
15095;DHT22;7648;52.264;9.632;2022-10-28T22:13:39;18.30;99.90
15095;DHT22;7648;52.264;9.632;2022-10-28T22:17:42;18.30;99.90
15095;DHT22;7648;52.264;9.632;2022-10-28T22:21:44;18.20;99.90
15095;DHT22;7648;52.264;9.632;2022-10-28T22:25:46;18.10;99.90
15095;DHT22;7648;52.264;9.632;2022-10-28T22:29:48;18.00;99.90
15095;DHT22;7648;52.264;9.632;2022-10-28T22:33:51;18.00;99.90
15095;DHT22;7648;52.264;9.632;2022-10-28T22:37:53;17.90;99.90
15095;DHT22;7648;52.264;9.632;2022-10-28T22:41:55;17.80;99.90
15095;DHT22;7648;52.264;9.632;2022-10-28T22:45:58;17.70;99.90
15095;DHT22;7648;52.264;9.632;2022-10-28T22:50:01;17.60;99.90
15095;DHT22;7648;52.264;9.632;2022-10-28T22:54:04;17.40;99.90
15095;DHT22;7648;52.264;9.632;2022-10-28T22:58:06;17.30;99.90
15095;DHT22;7648;52.264;9.632;2022-10-28T23:02:08;17.30;99.90
15095;DHT22;7648;52.264;9.632;2022-10-28T23:06:13;17.20;99.90
15095;DHT22;7648;52.264;9.632;2022-10-28T23:10:15;17.10;99.90
15095;DHT22;7648;52.264;9.632;2022-10-28T23:14:17;17.10;99.90
15095;DHT22;7648;52.264;9.632;2022-10-28T23:18:19;17.00;99.90
15095;DHT22;7648;52.264;9.632;2022-10-28T23:22:22;17.00;99.90
15095;DHT22;7648;52.264;9.632;2022-10-28T23:26:25;17.00;99.90
15095;DHT22;7648;52.264;9.632;2022-10-28T23:30:27;16.90;99.90
15095;DHT22;7648;52.264;9.632;2022-10-28T23:34:29;16.90;99.90
15095;DHT22;7648;52.264;9.632;2022-10-28T23:38:33;16.90;99.90
15095;DHT22;7648;52.264;9.632;2022-10-28T23:42:35;16.90;99.90
15095;DHT22;7648;52.264;9.632;2022-10-28T23:46:36;16.90;99.90
15095;DHT22;7648;52.264;9.632;2022-10-28T23:50:38;16.90;99.90
15095;DHT22;7648;52.264;9.632;2022-10-28T23:54:42;16.90;99.90
15095;DHT22;7648;52.264;9.632;2022-10-28T23:58:44;16.90;99.90
